sensor_id;sensor_type;location;lat;lon;timestamp;temperature;humidity
15707;DHT22;7953;54.302;10.128;2023-04-03T00:00:05;1.00;99.90
15707;DHT22;7953;54.302;10.128;2023-04-03T00:02:33;1.00;99.90
15707;DHT22;7953;54.302;10.128;2023-04-03T00:05:00;0.90;99.90
15707;DHT22;7953;54.302;10.128;2023-04-03T00:07:27;0.90;99.90
15707;DHT22;7953;54.302;10.128;2023-04-03T00:09:54;0.90;99.90
15707;DHT22;7953;54.302;10.128;2023-04-03T00:12:21;0.90;99.90
15707;DHT22;7953;54.302;10.128;2023-04-03T00:14:48;0.90;99.90
15707;DHT22;7953;54.302;10.128;2023-04-03T00:17:15;0.90;99.90
15707;DHT22;7953;54.302;10.128;2023-04-03T00:19:43;0.80;99.90
15707;DHT22;7953;54.302;10.128;2023-04-03T00:22:10;0.80;99.90
15707;DHT22;7953;54.302;10.128;2023-04-03T00:24:37;0.70;99.90
15707;DHT22;7953;54.302;10.128;2023-04-03T00:27:04;0.70;99.90
15707;DHT22;7953;54.302;10.128;2023-04-03T00:29:30;0.60;99.90
15707;DHT22;7953;54.302;10.128;2023-04-03T00:31:57;0.60;99.90
15707;DHT22;7953;54.302;10.128;2023-04-03T00:34:24;0.60;99.90
15707;DHT22;7953;54.302;10.128;2023-04-03T00:36:52;0.60;99.90
15707;DHT22;7953;54.302;10.128;2023-04-03T00:39:19;0.50;99.90
15707;DHT22;7953;54.302;10.128;2023-04-03T00:41:46;0.50;99.90
15707;DHT22;7953;54.302;10.128;2023-04-03T00:47:27;0.50;99.90
15707;DHT22;7953;54.302;10.128;2023-04-03T00:49:54;0.40;99.90
15707;DHT22;7953;54.302;10.128;2023-04-03T00:52:25;0.40;99.90
15707;DHT22;7953;54.302;10.128;2023-04-03T00:54:54;0.40;99.90
15707;DHT22;7953;54.302;10.128;2023-04-03T00:57:23;0.30;99.90
15707;DHT22;7953;54.302;10.128;2023-04-03T00:59:56;0.30;99.90
15707;DHT22;7953;54.302;10.128;2023-04-03T01:02:24;0.30;99.90
15707;DHT22;7953;54.302;10.128;2023-04-03T01:04:51;0.30;99.90
15707;DHT22;7953;54.302;10.128;2023-04-03T01:07:20;0.30;99.90
15707;DHT22;7953;54.302;10.128;2023-04-03T01:09:53;0.20;99.90
15707;DHT22;7953;54.302;10.128;2023-04-03T01:12:23;0.20;99.90
15707;DHT22;7953;54.302;10.128;2023-04-03T01:14:52;0.20;99.90
15707;DHT22;7953;54.302;10.128;2023-04-03T01:17:32;0.20;99.90
15707;DHT22;7953;54.302;10.128;2023-04-03T01:20:35;0.20;99.90
15707;DHT22;7953;54.302;10.128;2023-04-03T01:25:59;0.10;99.90
15707;DHT22;7953;54.302;10.128;2023-04-03T01:28:29;0.10;99.90
15707;DHT22;7953;54.302;10.128;2023-04-03T01:31:00;0.10;99.90
15707;DHT22;7953;54.302;10.128;2023-04-03T01:33:30;0.10;99.90
15707;DHT22;7953;54.302;10.128;2023-04-03T01:35:57;0.00;99.90
15707;DHT22;7953;54.302;10.128;2023-04-03T01:38:24;0.00;99.90
15707;DHT22;7953;54.302;10.128;2023-04-03T01:40:51;0.00;99.90
15707;DHT22;7953;54.302;10.128;2023-04-03T01:43:18;0.00;99.90
15707;DHT22;7953;54.302;10.128;2023-04-03T01:45:44;0.00;99.90
15707;DHT22;7953;54.302;10.128;2023-04-03T01:48:12;-0.10;99.90
15707;DHT22;7953;54.302;10.128;2023-04-03T01:50:41;-0.20;99.90
15707;DHT22;7953;54.302;10.128;2023-04-03T01:53:08;-0.20;99.90
15707;DHT22;7953;54.302;10.128;2023-04-03T01:55:35;-0.20;99.90
15707;DHT22;7953;54.302;10.128;2023-04-03T01:58:01;-0.20;99.90
15707;DHT22;7953;54.302;10.128;2023-04-03T02:00:28;-0.20;99.90
15707;DHT22;7953;54.302;10.128;2023-04-03T02:02:56;-0.20;99.90
15707;DHT22;7953;54.302;10.128;2023-04-03T02:05:23;-0.20;99.90
15707;DHT22;7953;54.302;10.128;2023-04-03T02:07:51;-0.20;99.90
15707;DHT22;7953;54.302;10.128;2023-04-03T02:10:18;-0.30;99.90
15707;DHT22;7953;54.302;10.128;2023-04-03T02:12:45;-0.30;99.90
15707;DHT22;7953;54.302;10.128;2023-04-03T02:15:12;-0.30;99.90
15707;DHT22;7953;54.302;10.128;2023-04-03T02:17:39;-0.30;99.90
15707;DHT22;7953;54.302;10.128;2023-04-03T02:20:07;-0.30;99.90
15707;DHT22;7953;54.302;10.128;2023-04-03T02:22:34;-0.40;99.90
15707;DHT22;7953;54.302;10.128;2023-04-03T02:25:03;-0.40;99.90
15707;DHT22;7953;54.302;10.128;2023-04-03T02:27:29;-0.40;99.90
15707;DHT22;7953;54.302;10.128;2023-04-03T02:29:57;-0.40;99.90
15707;DHT22;7953;54.302;10.128;2023-04-03T02:32:24;-0.40;99.90
15707;DHT22;7953;54.302;10.128;2023-04-03T02:34:51;-0.40;99.90
15707;DHT22;7953;54.302;10.128;2023-04-03T02:37:17;-0.50;99.90
15707;DHT22;7953;54.302;10.128;2023-04-03T02:39:44;-0.50;99.90
15707;DHT22;7953;54.302;10.128;2023-04-03T02:42:12;-0.50;99.90
15707;DHT22;7953;54.302;10.128;2023-04-03T02:44:39;-0.50;99.90
15707;DHT22;7953;54.302;10.128;2023-04-03T02:47:06;-0.60;99.90
15707;DHT22;7953;54.302;10.128;2023-04-03T02:49:33;-0.60;99.90
15707;DHT22;7953;54.302;10.128;2023-04-03T02:52:00;-0.60;99.90
15707;DHT22;7953;54.302;10.128;2023-04-03T02:54:27;-0.60;99.90
15707;DHT22;7953;54.302;10.128;2023-04-03T02:56:56;-0.70;99.90
15707;DHT22;7953;54.302;10.128;2023-04-03T02:59:24;-0.70;99.90
15707;DHT22;7953;54.302;10.128;2023-04-03T03:01:51;-0.70;99.90
15707;DHT22;7953;54.302;10.128;2023-04-03T03:04:18;-0.70;99.90
15707;DHT22;7953;54.302;10.128;2023-04-03T03:06:45;-0.70;99.90
15707;DHT22;7953;54.302;10.128;2023-04-03T03:09:13;-0.70;99.90
15707;DHT22;7953;54.302;10.128;2023-04-03T03:11:40;-0.70;99.90
15707;DHT22;7953;54.302;10.128;2023-04-03T03:14:07;-0.70;99.90
15707;DHT22;7953;54.302;10.128;2023-04-03T03:16:35;-0.80;99.90
15707;DHT22;7953;54.302;10.128;2023-04-03T03:19:02;-0.80;99.90
15707;DHT22;7953;54.302;10.128;2023-04-03T03:21:29;-0.80;99.90
15707;DHT22;7953;54.302;10.128;2023-04-03T03:23:56;-0.90;99.90
15707;DHT22;7953;54.302;10.128;2023-04-03T03:26:22;-0.90;99.90
15707;DHT22;7953;54.302;10.128;2023-04-03T03:28:50;-0.90;99.90
15707;DHT22;7953;54.302;10.128;2023-04-03T03:31:17;-0.90;99.90
15707;DHT22;7953;54.302;10.128;2023-04-03T03:33:45;-0.90;99.90
15707;DHT22;7953;54.302;10.128;2023-04-03T03:36:12;-0.90;99.90
15707;DHT22;7953;54.302;10.128;2023-04-03T03:38:39;-0.90;99.90
15707;DHT22;7953;54.302;10.128;2023-04-03T03:41:06;-0.90;99.90
15707;DHT22;7953;54.302;10.128;2023-04-03T03:43:33;-0.90;99.90
15707;DHT22;7953;54.302;10.128;2023-04-03T03:46:00;-1.00;99.90
15707;DHT22;7953;54.302;10.128;2023-04-03T03:48:27;-1.00;99.90
15707;DHT22;7953;54.302;10.128;2023-04-03T03:50:55;-1.00;99.90
15707;DHT22;7953;54.302;10.128;2023-04-03T03:53:22;-1.00;99.90
15707;DHT22;7953;54.302;10.128;2023-04-03T03:55:49;-1.00;99.90
15707;DHT22;7953;54.302;10.128;2023-04-03T03:58:16;-1.00;99.90
15707;DHT22;7953;54.302;10.128;2023-04-03T04:00:43;-1.10;99.90
15707;DHT22;7953;54.302;10.128;2023-04-03T04:03:10;-1.10;99.90
15707;DHT22;7953;54.302;10.128;2023-04-03T04:05:37;-1.10;99.90
15707;DHT22;7953;54.302;10.128;2023-04-03T04:08:05;-1.10;99.90
15707;DHT22;7953;54.302;10.128;2023-04-03T04:10:32;-1.10;99.90
15707;DHT22;7953;54.302;10.128;2023-04-03T04:12:59;-1.10;99.90
15707;DHT22;7953;54.302;10.128;2023-04-03T04:15:26;-1.10;99.90
15707;DHT22;7953;54.302;10.128;2023-04-03T04:17:53;-1.10;99.90
15707;DHT22;7953;54.302;10.128;2023-04-03T04:20:20;-1.10;99.90
15707;DHT22;7953;54.302;10.128;2023-04-03T04:22:47;-1.10;99.90
15707;DHT22;7953;54.302;10.128;2023-04-03T04:25:16;-1.10;99.90
15707;DHT22;7953;54.302;10.128;2023-04-03T04:27:42;-1.20;99.90
15707;DHT22;7953;54.302;10.128;2023-04-03T04:30:11;-1.20;99.90
15707;DHT22;7953;54.302;10.128;2023-04-03T04:32:38;-1.20;99.90
15707;DHT22;7953;54.302;10.128;2023-04-03T04:35:05;-1.20;99.90
15707;DHT22;7953;54.302;10.128;2023-04-03T04:37:32;-1.20;99.90
15707;DHT22;7953;54.302;10.128;2023-04-03T04:39:59;-1.20;99.90
15707;DHT22;7953;54.302;10.128;2023-04-03T04:42:27;-1.20;99.90
15707;DHT22;7953;54.302;10.128;2023-04-03T04:44:54;-1.20;99.90
15707;DHT22;7953;54.302;10.128;2023-04-03T04:47:21;-1.30;99.90
15707;DHT22;7953;54.302;10.128;2023-04-03T04:49:48;-1.30;99.90
15707;DHT22;7953;54.302;10.128;2023-04-03T04:52:15;-1.30;99.90
15707;DHT22;7953;54.302;10.128;2023-04-03T04:54:42;-1.30;99.90
15707;DHT22;7953;54.302;10.128;2023-04-03T04:57:09;-1.30;99.90
15707;DHT22;7953;54.302;10.128;2023-04-03T04:59:37;-1.30;99.90
15707;DHT22;7953;54.302;10.128;2023-04-03T05:02:04;-1.30;99.90
15707;DHT22;7953;54.302;10.128;2023-04-03T05:04:31;-1.30;99.90
15707;DHT22;7953;54.302;10.128;2023-04-03T05:06:58;-1.40;99.90
15707;DHT22;7953;54.302;10.128;2023-04-03T05:09:25;-1.40;99.90
15707;DHT22;7953;54.302;10.128;2023-04-03T05:11:52;-1.40;99.90
15707;DHT22;7953;54.302;10.128;2023-04-03T05:14:19;-1.40;99.90
15707;DHT22;7953;54.302;10.128;2023-04-03T05:16:47;-1.40;99.90
15707;DHT22;7953;54.302;10.128;2023-04-03T05:19:18;-1.40;99.90
15707;DHT22;7953;54.302;10.128;2023-04-03T05:21:45;-1.40;99.90
15707;DHT22;7953;54.302;10.128;2023-04-03T05:24:12;-1.30;99.90
15707;DHT22;7953;54.302;10.128;2023-04-03T05:26:39;-1.30;99.90
15707;DHT22;7953;54.302;10.128;2023-04-03T05:29:06;-1.30;99.90
15707;DHT22;7953;54.302;10.128;2023-04-03T05:31:33;-1.30;99.90
15707;DHT22;7953;54.302;10.128;2023-04-03T05:34:01;-1.30;99.90
15707;DHT22;7953;54.302;10.128;2023-04-03T05:36:28;-1.30;99.90
15707;DHT22;7953;54.302;10.128;2023-04-03T05:38:55;-1.30;99.90
15707;DHT22;7953;54.302;10.128;2023-04-03T05:41:23;-1.30;99.90
15707;DHT22;7953;54.302;10.128;2023-04-03T05:43:50;-1.20;99.90
15707;DHT22;7953;54.302;10.128;2023-04-03T05:46:18;-1.20;99.90
15707;DHT22;7953;54.302;10.128;2023-04-03T05:48:46;-1.10;99.90
15707;DHT22;7953;54.302;10.128;2023-04-03T05:51:16;-1.10;99.90
15707;DHT22;7953;54.302;10.128;2023-04-03T05:53:45;-1.10;99.90
15707;DHT22;7953;54.302;10.128;2023-04-03T05:56:19;-1.10;99.90
15707;DHT22;7953;54.302;10.128;2023-04-03T05:58:46;-1.10;99.90
15707;DHT22;7953;54.302;10.128;2023-04-03T06:01:13;-1.00;99.90
15707;DHT22;7953;54.302;10.128;2023-04-03T06:03:41;-1.00;99.90
15707;DHT22;7953;54.302;10.128;2023-04-03T06:06:10;-1.00;99.90
15707;DHT22;7953;54.302;10.128;2023-04-03T06:08:40;-1.00;99.90
15707;DHT22;7953;54.302;10.128;2023-04-03T06:11:06;-0.90;99.90
15707;DHT22;7953;54.302;10.128;2023-04-03T06:13:34;-0.90;99.90
15707;DHT22;7953;54.302;10.128;2023-04-03T06:16:01;-0.80;99.90
15707;DHT22;7953;54.302;10.128;2023-04-03T06:18:29;-0.70;99.90
15707;DHT22;7953;54.302;10.128;2023-04-03T06:20:57;-0.60;99.90
15707;DHT22;7953;54.302;10.128;2023-04-03T06:23:26;-0.60;99.90
15707;DHT22;7953;54.302;10.128;2023-04-03T06:25:54;-0.50;99.90
15707;DHT22;7953;54.302;10.128;2023-04-03T06:28:21;-0.40;99.90
15707;DHT22;7953;54.302;10.128;2023-04-03T06:30:48;-0.40;99.90
15707;DHT22;7953;54.302;10.128;2023-04-03T06:33:14;-0.30;99.90
15707;DHT22;7953;54.302;10.128;2023-04-03T06:35:42;-0.30;99.90
15707;DHT22;7953;54.302;10.128;2023-04-03T06:38:08;-0.20;99.90
15707;DHT22;7953;54.302;10.128;2023-04-03T06:40:36;-0.10;99.90
15707;DHT22;7953;54.302;10.128;2023-04-03T06:43:05;0.00;99.90
15707;DHT22;7953;54.302;10.128;2023-04-03T06:45:32;0.10;99.90
15707;DHT22;7953;54.302;10.128;2023-04-03T06:47:59;0.20;99.90
15707;DHT22;7953;54.302;10.128;2023-04-03T06:50:26;0.30;99.90
15707;DHT22;7953;54.302;10.128;2023-04-03T06:52:53;0.40;99.90
15707;DHT22;7953;54.302;10.128;2023-04-03T06:55:20;0.50;99.90
15707;DHT22;7953;54.302;10.128;2023-04-03T06:57:47;0.60;99.90
15707;DHT22;7953;54.302;10.128;2023-04-03T07:00:16;0.70;99.90
15707;DHT22;7953;54.302;10.128;2023-04-03T07:02:44;0.80;99.90
15707;DHT22;7953;54.302;10.128;2023-04-03T07:05:10;0.90;99.90
15707;DHT22;7953;54.302;10.128;2023-04-03T07:07:37;1.00;99.90
15707;DHT22;7953;54.302;10.128;2023-04-03T07:10:06;1.10;99.90
15707;DHT22;7953;54.302;10.128;2023-04-03T07:12:33;1.20;99.90
15707;DHT22;7953;54.302;10.128;2023-04-03T07:15:00;1.50;99.90
15707;DHT22;7953;54.302;10.128;2023-04-03T07:17:29;1.70;99.90
15707;DHT22;7953;54.302;10.128;2023-04-03T07:19:56;1.80;99.90
15707;DHT22;7953;54.302;10.128;2023-04-03T07:22:23;1.90;99.90
15707;DHT22;7953;54.302;10.128;2023-04-03T07:24:50;2.00;99.90
15707;DHT22;7953;54.302;10.128;2023-04-03T07:27:17;2.10;99.90
15707;DHT22;7953;54.302;10.128;2023-04-03T07:29:45;2.20;99.90
15707;DHT22;7953;54.302;10.128;2023-04-03T07:32:13;2.30;99.90
15707;DHT22;7953;54.302;10.128;2023-04-03T07:34:42;2.40;99.90
15707;DHT22;7953;54.302;10.128;2023-04-03T07:37:08;2.50;99.90
15707;DHT22;7953;54.302;10.128;2023-04-03T07:39:35;2.80;99.90
15707;DHT22;7953;54.302;10.128;2023-04-03T07:42:02;3.10;99.90
15707;DHT22;7953;54.302;10.128;2023-04-03T07:44:29;3.30;99.90
15707;DHT22;7953;54.302;10.128;2023-04-03T07:46:56;3.40;99.90
15707;DHT22;7953;54.302;10.128;2023-04-03T07:49:23;3.60;99.90
15707;DHT22;7953;54.302;10.128;2023-04-03T07:51:52;3.60;99.90
15707;DHT22;7953;54.302;10.128;2023-04-03T07:54:19;3.80;99.90
15707;DHT22;7953;54.302;10.128;2023-04-03T07:56:46;4.10;99.90
15707;DHT22;7953;54.302;10.128;2023-04-03T07:59:13;4.10;99.90
15707;DHT22;7953;54.302;10.128;2023-04-03T08:01:40;4.00;99.90
15707;DHT22;7953;54.302;10.128;2023-04-03T08:04:07;4.00;99.90
15707;DHT22;7953;54.302;10.128;2023-04-03T08:06:34;4.20;99.90
15707;DHT22;7953;54.302;10.128;2023-04-03T08:09:04;4.40;99.90
15707;DHT22;7953;54.302;10.128;2023-04-03T08:11:31;4.50;99.90
15707;DHT22;7953;54.302;10.128;2023-04-03T08:13:58;4.70;99.90
15707;DHT22;7953;54.302;10.128;2023-04-03T08:16:25;4.60;99.90
15707;DHT22;7953;54.302;10.128;2023-04-03T08:18:53;4.70;99.90
15707;DHT22;7953;54.302;10.128;2023-04-03T08:21:21;4.70;99.90
15707;DHT22;7953;54.302;10.128;2023-04-03T08:23:49;4.70;99.90
15707;DHT22;7953;54.302;10.128;2023-04-03T08:26:20;4.80;99.90
15707;DHT22;7953;54.302;10.128;2023-04-03T08:28:47;5.00;99.90
15707;DHT22;7953;54.302;10.128;2023-04-03T08:31:16;5.10;99.90
15707;DHT22;7953;54.302;10.128;2023-04-03T08:33:44;5.10;99.90
15707;DHT22;7953;54.302;10.128;2023-04-03T08:36:17;5.30;99.90
15707;DHT22;7953;54.302;10.128;2023-04-03T08:38:45;5.60;99.90
15707;DHT22;7953;54.302;10.128;2023-04-03T08:41:15;6.00;99.90
15707;DHT22;7953;54.302;10.128;2023-04-03T08:43:56;6.40;99.90
15707;DHT22;7953;54.302;10.128;2023-04-03T08:46:31;6.80;99.90
15707;DHT22;7953;54.302;10.128;2023-04-03T08:49:01;7.30;99.90
15707;DHT22;7953;54.302;10.128;2023-04-03T08:51:29;7.60;99.90
15707;DHT22;7953;54.302;10.128;2023-04-03T08:54:00;8.00;99.90
15707;DHT22;7953;54.302;10.128;2023-04-03T08:56:29;8.10;99.90
15707;DHT22;7953;54.302;10.128;2023-04-03T08:59:00;8.40;99.90
15707;DHT22;7953;54.302;10.128;2023-04-03T09:01:33;8.60;99.90
15707;DHT22;7953;54.302;10.128;2023-04-03T09:04:01;9.00;99.90
15707;DHT22;7953;54.302;10.128;2023-04-03T09:06:30;9.30;99.90
15707;DHT22;7953;54.302;10.128;2023-04-03T09:09:10;9.50;99.90
15707;DHT22;7953;54.302;10.128;2023-04-03T09:11:45;9.90;99.90
15707;DHT22;7953;54.302;10.128;2023-04-03T09:14:19;10.30;99.90
15707;DHT22;7953;54.302;10.128;2023-04-03T09:16:54;10.50;99.90
15707;DHT22;7953;54.302;10.128;2023-04-03T09:19:26;10.80;99.90
15707;DHT22;7953;54.302;10.128;2023-04-03T09:21:58;10.80;99.90
15707;DHT22;7953;54.302;10.128;2023-04-03T09:24:26;10.60;99.90
15707;DHT22;7953;54.302;10.128;2023-04-03T09:26:56;10.10;99.90
15707;DHT22;7953;54.302;10.128;2023-04-03T09:29:26;9.80;99.90
15707;DHT22;7953;54.302;10.128;2023-04-03T09:31:56;10.00;99.90
15707;DHT22;7953;54.302;10.128;2023-04-03T09:34:26;10.50;99.90
15707;DHT22;7953;54.302;10.128;2023-04-03T09:36:54;10.70;99.90
15707;DHT22;7953;54.302;10.128;2023-04-03T09:39:23;10.80;99.90
15707;DHT22;7953;54.302;10.128;2023-04-03T09:41:59;10.50;99.90
15707;DHT22;7953;54.302;10.128;2023-04-03T09:44:30;10.60;99.90
15707;DHT22;7953;54.302;10.128;2023-04-03T09:46:58;10.70;99.90
15707;DHT22;7953;54.302;10.128;2023-04-03T09:49:26;10.40;99.90
15707;DHT22;7953;54.302;10.128;2023-04-03T09:51:53;10.20;99.90
15707;DHT22;7953;54.302;10.128;2023-04-03T09:54:41;10.00;99.90
15707;DHT22;7953;54.302;10.128;2023-04-03T09:57:10;10.00;99.90
15707;DHT22;7953;54.302;10.128;2023-04-03T09:59:46;10.20;99.90
15707;DHT22;7953;54.302;10.128;2023-04-03T10:02:29;10.50;99.90
15707;DHT22;7953;54.302;10.128;2023-04-03T10:04:57;11.00;99.90
15707;DHT22;7953;54.302;10.128;2023-04-03T10:07:30;11.50;99.90
15707;DHT22;7953;54.302;10.128;2023-04-03T10:09:59;11.90;99.90
15707;DHT22;7953;54.302;10.128;2023-04-03T10:12:27;12.20;99.90
15707;DHT22;7953;54.302;10.128;2023-04-03T10:14:57;12.40;99.90
15707;DHT22;7953;54.302;10.128;2023-04-03T10:17:33;12.60;99.90
15707;DHT22;7953;54.302;10.128;2023-04-03T10:20:09;12.80;99.90
15707;DHT22;7953;54.302;10.128;2023-04-03T10:22:46;12.80;99.90
15707;DHT22;7953;54.302;10.128;2023-04-03T10:25:25;12.70;99.90
15707;DHT22;7953;54.302;10.128;2023-04-03T10:27:58;12.60;99.90
15707;DHT22;7953;54.302;10.128;2023-04-03T10:30:36;12.70;99.90
15707;DHT22;7953;54.302;10.128;2023-04-03T10:33:34;13.00;99.90
15707;DHT22;7953;54.302;10.128;2023-04-03T10:36:09;13.30;99.90
15707;DHT22;7953;54.302;10.128;2023-04-03T10:38:46;13.40;99.90
15707;DHT22;7953;54.302;10.128;2023-04-03T10:41:20;13.50;99.90
15707;DHT22;7953;54.302;10.128;2023-04-03T10:43:56;13.40;99.90
15707;DHT22;7953;54.302;10.128;2023-04-03T10:46:33;13.40;99.90
15707;DHT22;7953;54.302;10.128;2023-04-03T10:49:14;13.00;99.90
15707;DHT22;7953;54.302;10.128;2023-04-03T10:51:47;12.90;99.90
15707;DHT22;7953;54.302;10.128;2023-04-03T10:54:19;13.00;99.90
15707;DHT22;7953;54.302;10.128;2023-04-03T10:56:48;12.80;99.90
15707;DHT22;7953;54.302;10.128;2023-04-03T10:59:23;12.80;99.90
15707;DHT22;7953;54.302;10.128;2023-04-03T11:01:56;12.80;99.90
15707;DHT22;7953;54.302;10.128;2023-04-03T11:04:26;12.60;99.90
15707;DHT22;7953;54.302;10.128;2023-04-03T11:06:58;12.60;99.90
15707;DHT22;7953;54.302;10.128;2023-04-03T11:09:28;12.50;99.90
15707;DHT22;7953;54.302;10.128;2023-04-03T11:12:00;12.40;99.90
15707;DHT22;7953;54.302;10.128;2023-04-03T11:14:30;12.60;99.90
15707;DHT22;7953;54.302;10.128;2023-04-03T11:17:11;12.50;99.90
15707;DHT22;7953;54.302;10.128;2023-04-03T11:19:44;12.60;99.90
15707;DHT22;7953;54.302;10.128;2023-04-03T11:22:20;12.40;99.90
15707;DHT22;7953;54.302;10.128;2023-04-03T11:24:57;12.70;99.90
15707;DHT22;7953;54.302;10.128;2023-04-03T11:27:25;12.90;99.90
15707;DHT22;7953;54.302;10.128;2023-04-03T11:29:57;13.10;99.90
15707;DHT22;7953;54.302;10.128;2023-04-03T11:32:46;13.30;99.90
15707;DHT22;7953;54.302;10.128;2023-04-03T11:35:17;13.40;99.90
15707;DHT22;7953;54.302;10.128;2023-04-03T11:37:46;13.50;99.90
15707;DHT22;7953;54.302;10.128;2023-04-03T11:40:22;13.40;99.90
15707;DHT22;7953;54.302;10.128;2023-04-03T11:42:53;13.30;99.90
15707;DHT22;7953;54.302;10.128;2023-04-03T11:45:31;13.10;99.90
15707;DHT22;7953;54.302;10.128;2023-04-03T11:48:03;13.10;99.90
15707;DHT22;7953;54.302;10.128;2023-04-03T11:50:42;13.30;99.90
15707;DHT22;7953;54.302;10.128;2023-04-03T11:53:43;13.40;99.90
15707;DHT22;7953;54.302;10.128;2023-04-03T11:56:30;13.50;99.90
15707;DHT22;7953;54.302;10.128;2023-04-03T11:59:23;13.70;99.90
15707;DHT22;7953;54.302;10.128;2023-04-03T12:01:51;13.70;99.90
15707;DHT22;7953;54.302;10.128;2023-04-03T12:04:21;13.70;99.90
15707;DHT22;7953;54.302;10.128;2023-04-03T12:06:58;13.50;99.90
15707;DHT22;7953;54.302;10.128;2023-04-03T12:09:28;13.20;99.90
15707;DHT22;7953;54.302;10.128;2023-04-03T12:11:57;12.90;99.90
15707;DHT22;7953;54.302;10.128;2023-04-03T12:14:28;12.90;99.90
15707;DHT22;7953;54.302;10.128;2023-04-03T12:16:55;13.00;99.90
15707;DHT22;7953;54.302;10.128;2023-04-03T12:19:42;12.60;99.90
15707;DHT22;7953;54.302;10.128;2023-04-03T12:22:14;12.30;99.90
15707;DHT22;7953;54.302;10.128;2023-04-03T12:24:43;12.50;99.90
15707;DHT22;7953;54.302;10.128;2023-04-03T12:27:34;12.60;99.90
15707;DHT22;7953;54.302;10.128;2023-04-03T12:30:18;12.80;99.90
15707;DHT22;7953;54.302;10.128;2023-04-03T12:33:09;12.90;99.90
15707;DHT22;7953;54.302;10.128;2023-04-03T12:35:46;12.80;99.90
15707;DHT22;7953;54.302;10.128;2023-04-03T12:38:37;12.80;99.90
15707;DHT22;7953;54.302;10.128;2023-04-03T12:41:27;12.90;99.90
15707;DHT22;7953;54.302;10.128;2023-04-03T12:46:52;13.00;99.90
15707;DHT22;7953;54.302;10.128;2023-04-03T12:49:33;13.10;99.90
15707;DHT22;7953;54.302;10.128;2023-04-03T12:52:05;13.00;99.90
15707;DHT22;7953;54.302;10.128;2023-04-03T12:54:35;12.90;99.90
15707;DHT22;7953;54.302;10.128;2023-04-03T12:57:12;13.10;99.90
15707;DHT22;7953;54.302;10.128;2023-04-03T12:59:39;13.20;99.90
15707;DHT22;7953;54.302;10.128;2023-04-03T13:02:20;13.20;99.90
15707;DHT22;7953;54.302;10.128;2023-04-03T13:04:48;13.10;99.90
15707;DHT22;7953;54.302;10.128;2023-04-03T13:07:22;13.10;99.90
15707;DHT22;7953;54.302;10.128;2023-04-03T13:10:00;13.20;99.90
15707;DHT22;7953;54.302;10.128;2023-04-03T13:12:27;13.10;99.90
15707;DHT22;7953;54.302;10.128;2023-04-03T13:14:56;13.30;99.90
15707;DHT22;7953;54.302;10.128;2023-04-03T13:17:24;13.30;99.90
15707;DHT22;7953;54.302;10.128;2023-04-03T13:19:51;13.20;99.90
15707;DHT22;7953;54.302;10.128;2023-04-03T13:22:28;13.20;99.90
15707;DHT22;7953;54.302;10.128;2023-04-03T13:24:59;13.20;99.90
15707;DHT22;7953;54.302;10.128;2023-04-03T13:27:27;13.20;99.90
15707;DHT22;7953;54.302;10.128;2023-04-03T13:29:58;13.20;99.90
15707;DHT22;7953;54.302;10.128;2023-04-03T13:32:28;13.00;99.90
15707;DHT22;7953;54.302;10.128;2023-04-03T13:34:56;13.00;99.90
15707;DHT22;7953;54.302;10.128;2023-04-03T13:37:28;13.00;99.90
15707;DHT22;7953;54.302;10.128;2023-04-03T13:40:01;13.20;99.90
15707;DHT22;7953;54.302;10.128;2023-04-03T13:42:31;13.30;99.90
15707;DHT22;7953;54.302;10.128;2023-04-03T13:45:26;13.40;99.90
15707;DHT22;7953;54.302;10.128;2023-04-03T13:48:08;13.40;99.90
15707;DHT22;7953;54.302;10.128;2023-04-03T13:50:54;13.20;99.90
15707;DHT22;7953;54.302;10.128;2023-04-03T13:53:24;13.00;99.90
15707;DHT22;7953;54.302;10.128;2023-04-03T13:55:55;12.80;99.90
15707;DHT22;7953;54.302;10.128;2023-04-03T13:58:24;12.70;99.90
15707;DHT22;7953;54.302;10.128;2023-04-03T14:00:53;12.70;99.90
15707;DHT22;7953;54.302;10.128;2023-04-03T14:03:24;12.70;99.90
15707;DHT22;7953;54.302;10.128;2023-04-03T14:05:52;12.80;99.90
15707;DHT22;7953;54.302;10.128;2023-04-03T14:08:19;12.80;99.90
15707;DHT22;7953;54.302;10.128;2023-04-03T14:10:48;12.90;99.90
15707;DHT22;7953;54.302;10.128;2023-04-03T14:13:17;12.70;99.90
15707;DHT22;7953;54.302;10.128;2023-04-03T14:15:46;12.70;99.90
15707;DHT22;7953;54.302;10.128;2023-04-03T14:18:15;12.70;99.90
15707;DHT22;7953;54.302;10.128;2023-04-03T14:20:43;12.80;99.90
15707;DHT22;7953;54.302;10.128;2023-04-03T14:23:10;12.70;99.90
15707;DHT22;7953;54.302;10.128;2023-04-03T14:25:37;12.60;99.90
15707;DHT22;7953;54.302;10.128;2023-04-03T14:28:15;12.60;99.90
15707;DHT22;7953;54.302;10.128;2023-04-03T14:30:42;12.70;99.90
15707;DHT22;7953;54.302;10.128;2023-04-03T14:33:14;12.70;99.90
15707;DHT22;7953;54.302;10.128;2023-04-03T14:35:41;12.70;99.90
15707;DHT22;7953;54.302;10.128;2023-04-03T14:38:23;12.60;99.90
15707;DHT22;7953;54.302;10.128;2023-04-03T14:40:51;12.50;99.90
15707;DHT22;7953;54.302;10.128;2023-04-03T14:43:19;12.50;99.90
15707;DHT22;7953;54.302;10.128;2023-04-03T14:45:47;12.60;99.90
15707;DHT22;7953;54.302;10.128;2023-04-03T14:48:18;12.60;99.90
15707;DHT22;7953;54.302;10.128;2023-04-03T14:50:46;12.70;99.90
15707;DHT22;7953;54.302;10.128;2023-04-03T14:53:14;12.80;99.90
15707;DHT22;7953;54.302;10.128;2023-04-03T14:55:43;12.70;99.90
15707;DHT22;7953;54.302;10.128;2023-04-03T14:58:13;12.70;99.90
15707;DHT22;7953;54.302;10.128;2023-04-03T15:00:43;12.70;99.90
15707;DHT22;7953;54.302;10.128;2023-04-03T15:03:13;12.50;99.90
15707;DHT22;7953;54.302;10.128;2023-04-03T15:05:42;12.50;99.90
15707;DHT22;7953;54.302;10.128;2023-04-03T15:08:18;12.60;99.90
15707;DHT22;7953;54.302;10.128;2023-04-03T15:10:45;12.60;99.90
15707;DHT22;7953;54.302;10.128;2023-04-03T15:13:13;12.40;99.90
15707;DHT22;7953;54.302;10.128;2023-04-03T15:15:42;12.40;99.90
15707;DHT22;7953;54.302;10.128;2023-04-03T15:18:15;12.40;99.90
15707;DHT22;7953;54.302;10.128;2023-04-03T15:20:43;12.20;99.90
15707;DHT22;7953;54.302;10.128;2023-04-03T15:23:12;12.00;99.90
15707;DHT22;7953;54.302;10.128;2023-04-03T15:25:39;11.90;99.90
15707;DHT22;7953;54.302;10.128;2023-04-03T15:28:08;11.90;99.90
15707;DHT22;7953;54.302;10.128;2023-04-03T15:30:36;11.90;99.90
15707;DHT22;7953;54.302;10.128;2023-04-03T15:33:06;11.90;99.90
15707;DHT22;7953;54.302;10.128;2023-04-03T15:35:33;11.80;99.90
15707;DHT22;7953;54.302;10.128;2023-04-03T15:38:00;11.80;99.90
15707;DHT22;7953;54.302;10.128;2023-04-03T15:40:27;11.90;99.90
15707;DHT22;7953;54.302;10.128;2023-04-03T15:42:54;11.90;99.90
15707;DHT22;7953;54.302;10.128;2023-04-03T15:45:21;11.90;99.90
15707;DHT22;7953;54.302;10.128;2023-04-03T15:47:48;12.00;99.90
15707;DHT22;7953;54.302;10.128;2023-04-03T15:50:17;11.90;99.90
15707;DHT22;7953;54.302;10.128;2023-04-03T15:52:44;11.90;99.90
15707;DHT22;7953;54.302;10.128;2023-04-03T15:55:11;12.00;99.90
15707;DHT22;7953;54.302;10.128;2023-04-03T15:57:38;11.80;99.90
15707;DHT22;7953;54.302;10.128;2023-04-03T16:00:07;11.70;99.90